Time;durP1;ratioP1;P1;durP2;ratioP2;P2;SDS_P1;SDS_P2;PMS_P1;PMS_P2;Temp;Humidity;BMP_temperature;BMP_pressure;BME280_temperature;BME280_humidity;BME280_pressure;Samples;Min_cycle;Max_cycle;Signal;HPM_P1;HPM_P2
2023/01/15 00:00:05;;;;;;;17.58;9.93;;;;;;;5.36;100.00;101161.81;5012469;28;20026;-74
2023/01/15 00:02:31;;;;;;;18.63;11.10;;;;;;;5.43;100.00;101161.47;5012093;28;20057;-74
2023/01/15 00:04:57;;;;;;;21.55;11.57;;;;;;;5.14;100.00;101110.81;5011924;28;20127;-76
2023/01/15 00:07:22;;;;;;;21.05;10.75;;;;;;;5.46;100.00;101160.78;5012398;28;20030;-77
2023/01/15 00:09:48;;;;;;;24.05;11.43;;;;;;;5.56;100.00;101175.09;5012327;28;20037;-74
2023/01/15 00:12:14;;;;;;;23.02;10.95;;;;;;;5.59;100.00;101170.19;5012297;28;20026;-74
2023/01/15 00:14:40;;;;;;;21.13;11.95;;;;;;;5.61;100.00;101163.50;5012262;28;20037;-73
2023/01/15 00:17:05;;;;;;;27.40;12.13;;;;;;;5.59;100.00;101162.50;5011857;28;20025;-75
2023/01/15 00:19:31;;;;;;;19.60;11.38;;;;;;;5.45;100.00;101143.66;5012194;28;20042;-76
2023/01/15 00:21:57;;;;;;;24.55;11.48;;;;;;;5.21;100.00;101099.31;5012274;28;20022;-75
2023/01/15 00:29:54;;;;;;;33.28;15.60;;;;;;;5.53;100.00;101155.28;5011816;28;20845;-74
2023/01/15 00:32:19;;;;;;;21.50;10.63;;;;;;;5.45;100.00;101152.19;5003133;28;20034;-73
2023/01/15 00:34:45;;;;;;;18.45;9.57;;;;;;;5.45;100.00;101148.78;4993308;28;20042;-76
2023/01/15 00:37:10;;;;;;;19.13;10.73;;;;;;;5.40;100.00;101135.63;5011903;28;20040;-75
2023/01/15 00:39:36;;;;;;;30.38;12.52;;;;;;;5.53;100.00;101150.16;5011256;28;20029;-72
2023/01/15 00:42:01;;;;;;;23.05;12.30;;;;;;;5.57;100.00;101147.03;5010386;28;20029;-76
2023/01/15 00:44:27;;;;;;;47.92;19.15;;;;;;;5.48;100.00;101148.97;5011770;28;20436;-77
2023/01/15 00:46:53;;;;;;;29.42;13.15;;;;;;;5.37;100.00;101132.88;5011465;28;20494;-73
2023/01/15 00:49:18;;;;;;;29.02;13.25;;;;;;;5.46;100.00;101159.09;5011449;28;20037;-72
2023/01/15 00:51:44;;;;;;;28.17;12.35;;;;;;;5.51;100.00;101159.44;5010286;28;20025;-76
2023/01/15 00:54:29;;;;;;;26.98;12.57;;;;;;;5.55;100.00;101158.84;5011819;28;20029;-77
2023/01/15 00:56:55;;;;;;;27.40;12.43;;;;;;;5.53;100.00;101165.53;5007894;28;20053;-77
2023/01/15 00:59:20;;;;;;;28.08;14.23;;;;;;;4.98;100.00;101065.34;5008351;28;20042;-76
2023/01/15 01:01:46;;;;;;;27.77;15.43;;;;;;;5.11;100.00;101088.44;5008520;28;20133;-75
2023/01/15 01:04:11;;;;;;;26.98;12.93;;;;;;;5.49;100.00;101155.88;5008057;28;20029;-75
2023/01/15 01:06:37;;;;;;;38.45;17.45;;;;;;;5.39;100.00;101151.78;5009673;28;20034;-75
2023/01/15 01:09:02;;;;;;;30.80;15.35;;;;;;;4.88;100.00;101068.06;5015268;28;20049;-74
2023/01/15 01:11:32;;;;;;;24.40;13.15;;;;;;;5.26;100.00;101144.94;5026737;28;20095;-72
2023/01/15 01:14:00;;;;;;;20.85;12.30;;;;;;;5.25;100.00;101140.59;5027974;28;20088;-76
2023/01/15 01:16:37;;;;;;;25.60;14.30;;;;;;;5.14;100.00;101113.38;5027636;28;20038;-77
2023/01/15 01:19:10;;;;;;;33.85;17.35;;;;;;;5.25;100.00;101139.72;5009599;28;20229;-75
2023/01/15 01:21:37;;;;;;;29.90;14.55;;;;;;;5.25;100.00;101143.16;5007649;28;20033;-74
2023/01/15 01:24:03;;;;;;;29.08;14.80;;;;;;;5.15;100.00;101133.94;5007774;28;20037;-75
2023/01/15 01:26:29;;;;;;;28.25;15.90;;;;;;;4.80;100.00;101076.09;5007470;28;20099;-74
2023/01/15 01:28:56;;;;;;;28.55;14.68;;;;;;;5.14;100.00;101133.84;4991599;28;20470;-74
2023/01/15 01:31:22;;;;;;;28.92;14.05;;;;;;;4.98;100.00;101116.53;4990736;28;20030;-75
2023/01/15 01:33:52;;;;;;;34.20;14.80;;;;;;;5.09;100.00;101135.19;4990686;28;20130;-75
2023/01/15 01:36:18;;;;;;;54.85;21.27;;;;;;;5.07;100.00;101141.88;4991455;28;20038;-73
2023/01/15 01:38:48;;;;;;;37.28;18.60;;;;;;;5.06;100.00;101137.53;5007050;28;20034;-73
2023/01/15 01:41:15;;;;;;;42.75;18.33;;;;;;;5.04;100.00;101151.91;4997193;28;20042;-73
2023/01/15 01:44:28;;;;;;;59.42;25.05;;;;;;;5.04;100.00;101146.78;4991740;28;20034;-74
2023/01/15 01:46:54;;;;;;;49.95;17.35;;;;;;;4.97;100.00;101141.25;4969092;28;20053;-73
2023/01/15 01:49:19;;;;;;;48.72;20.95;;;;;;;4.78;100.00;101097.22;4969594;28;20030;-73
2023/01/15 01:51:51;;;;;;;70.50;22.20;;;;;;;5.09;100.00;101135.19;4969393;28;20034;-74
2023/01/15 01:54:20;;;;;;;38.42;18.42;;;;;;;5.02;100.00;101129.66;4969622;28;20026;-72
2023/01/15 01:56:48;;;;;;;45.50;17.15;;;;;;;4.62;100.00;101052.69;4969315;28;20196;-72
2023/01/15 01:59:16;;;;;;;50.30;21.23;;;;;;;5.15;100.00;101135.63;4969160;28;20031;-73
2023/01/15 02:01:42;;;;;;;43.55;19.10;;;;;;;4.97;100.00;101107.97;4969468;28;20089;-74
2023/01/15 02:04:09;;;;;;;29.75;15.05;;;;;;;5.18;100.00;101144.41;4969223;28;20604;-73
2023/01/15 02:06:36;;;;;;;25.85;12.68;;;;;;;4.65;100.00;101049.44;4969346;28;20073;-73
2023/01/15 02:09:02;;;;;;;28.02;12.85;;;;;;;5.05;100.00;101111.06;4969280;28;20138;-73
2023/01/15 02:11:29;;;;;;;31.90;15.00;;;;;;;4.68;100.00;101049.66;4969224;28;20065;-73
2023/01/15 02:14:00;;;;;;;49.65;17.35;;;;;;;5.31;100.00;101140.16;4969155;28;20081;-73
2023/01/15 02:16:33;;;;;;;22.67;12.32;;;;;;;5.33;100.00;101146.25;4969398;28;20047;-73
2023/01/15 02:19:11;;;;;;;29.27;12.02;;;;;;;4.78;100.00;101057.16;4969080;28;20560;-73
2023/01/15 02:21:36;;;;;;;36.38;14.38;;;;;;;5.29;100.00;101142.56;4969086;28;20042;-73
2023/01/15 02:24:05;;;;;;;24.13;13.20;;;;;;;5.29;100.00;101134.91;4989224;28;20038;-73
2023/01/15 02:26:55;;;;;;;25.13;11.43;;;;;;;5.33;100.00;101149.72;4990898;28;20142;-73
2023/01/15 02:29:31;;;;;;;29.95;13.27;;;;;;;4.91;100.00;101073.38;4990960;28;20041;-73
2023/01/15 02:32:00;;;;;;;23.92;11.93;;;;;;;5.22;100.00;101131.81;4991002;28;20030;-74
2023/01/15 02:34:31;;;;;;;20.50;11.38;;;;;;;5.30;100.00;101136.69;4987928;28;20038;-73
2023/01/15 02:37:03;;;;;;;22.30;11.45;;;;;;;4.86;100.00;101057.72;4988178;28;20074;-72
2023/01/15 02:39:31;;;;;;;35.35;14.65;;;;;;;5.35;100.00;101150.69;4988320;28;20553;-73
2023/01/15 02:42:01;;;;;;;28.77;13.27;;;;;;;5.21;100.00;101127.47;4988431;28;20121;-74
2023/01/15 02:44:29;;;;;;;;;;;;;;;5.28;100.00;101143.38;4988693;28;20076;-76
2023/01/15 02:46:56;;;;;;;25.15;12.50;;;;;;;5.24;100.00;101145.63;4988375;28;19906;-73
2023/01/15 02:49:22;;;;;;;22.15;11.57;;;;;;;5.25;100.00;101138.03;4987996;28;20038;-73
2023/01/15 02:51:57;;;;;;;27.38;12.75;;;;;;;5.34;100.00;101143.78;4988404;28;20038;-73
2023/01/15 02:54:29;;;;;;;28.70;12.13;;;;;;;5.31;100.00;101143.59;4988082;28;20046;-73
2023/01/15 02:56:59;;;;;;;30.60;11.77;;;;;;;5.30;100.00;101143.47;4988079;28;20026;-76
2023/01/15 02:59:34;;;;;;;23.35;11.95;;;;;;;4.78;100.00;101043.50;4977531;28;20037;-74
2023/01/15 03:02:03;;;;;;;24.15;11.13;;;;;;;5.39;100.00;101144.09;5027493;28;20022;-73
2023/01/15 03:04:52;;;;;;;27.75;11.80;;;;;;;5.36;100.00;101141.34;5025380;28;20039;-73
2023/01/15 03:07:36;;;;;;;24.65;11.23;;;;;;;5.38;100.00;101142.31;4990879;28;20026;-75
2023/01/15 03:10:03;;;;;;;25.80;12.45;;;;;;;5.39;100.00;101135.53;4990501;28;20030;-73
2023/01/15 03:18:59;;;;;;;21.73;11.00;;;;;;;5.12;100.00;101112.38;5007913;28;20088;-72
2023/01/15 03:21:37;;;;;;;26.33;11.32;;;;;;;5.25;100.00;101129.47;5007548;28;20033;-73
2023/01/15 03:24:05;;;;;;;29.33;11.18;;;;;;;5.16;100.00;101125.50;5007754;28;20415;-74
2023/01/15 03:26:30;;;;;;;26.58;12.05;;;;;;;5.21;100.00;101124.91;5007232;28;20486;-74
2023/01/15 03:28:57;;;;;;;23.55;11.57;;;;;;;4.79;100.00;101053.84;5007179;28;20037;-75
2023/01/15 03:31:22;;;;;;;25.23;12.52;;;;;;;5.18;100.00;101118.81;5007530;28;20034;-74
2023/01/15 03:33:48;;;;;;;24.13;12.65;;;;;;;5.17;100.00;101113.56;5008759;28;20151;-74
2023/01/15 03:36:13;;;;;;;26.17;11.98;;;;;;;5.25;100.00;101117.56;5010922;28;20034;-74
2023/01/15 03:38:40;;;;;;;23.60;11.27;;;;;;;5.05;100.00;101087.13;5011071;28;21461;-74
2023/01/15 03:41:17;;;;;;;24.75;12.00;;;;;;;5.26;100.00;101136.34;5011093;28;20077;-74
2023/01/15 03:43:49;;;;;;;27.50;12.68;;;;;;;5.17;100.00;101140.06;5010931;28;20511;-74
2023/01/15 03:46:39;;;;;;;29.50;12.20;;;;;;;5.13;100.00;101140.63;5010716;28;20431;-74
2023/01/15 03:49:10;;;;;;;22.75;11.75;;;;;;;5.19;100.00;101143.59;5010651;28;20467;-74
2023/01/15 03:52:05;;;;;;;23.17;11.93;;;;;;;5.19;100.00;101142.72;5008198;28;20496;-74
2023/01/15 03:54:57;;;;;;;27.48;11.45;;;;;;;5.17;100.00;101134.03;4993797;28;20038;-74
2023/01/15 03:57:41;;;;;;;20.65;11.15;;;;;;;4.62;100.00;101041.53;4993433;28;20034;-74
2023/01/15 04:00:17;;;;;;;23.08;10.60;;;;;;;5.23;100.00;101134.47;4993231;28;20419;-74
2023/01/15 04:02:45;;;;;;;24.88;10.32;;;;;;;5.24;100.00;101127.69;4993731;28;20040;-74
2023/01/15 04:05:12;;;;;;;23.90;10.85;;;;;;;5.30;100.00;101140.91;4993413;28;20030;-74
2023/01/15 04:10:26;;;;;;;20.00;10.63;;;;;;;5.27;100.00;101131.34;5176777;23;20053;-75
2023/01/15 04:12:51;;;;;;;17.88;10.52;;;;;;;5.41;100.00;101146.75;5016924;28;20136;-75
2023/01/15 04:15:17;;;;;;;19.10;11.20;;;;;;;5.32;100.00;101134.22;5019375;28;20033;-76
2023/01/15 04:17:43;;;;;;;18.65;11.20;;;;;;;5.45;100.00;101153.88;5012885;28;20492;-74
2023/01/15 04:20:09;;;;;;;17.33;10.43;;;;;;;5.40;100.00;101156.13;5013139;28;20040;-74
2023/01/15 04:22:35;;;;;;;17.52;9.77;;;;;;;5.37;100.00;101152.47;5012877;28;20040;-74
2023/01/15 04:25:03;;;;;;;18.60;9.98;;;;;;;4.82;100.00;101055.72;5012624;28;20030;-74
2023/01/15 04:27:28;;;;;;;16.48;9.23;;;;;;;5.40;100.00;101153.56;5012779;28;20062;-74
2023/01/15 04:29:54;;;;;;;16.95;9.30;;;;;;;5.33;100.00;101147.16;5012876;28;20064;-74
2023/01/15 04:32:19;;;;;;;18.83;9.20;;;;;;;5.26;100.00;101144.94;5028214;28;20036;-74
2023/01/15 04:34:45;;;;;;;17.02;8.82;;;;;;;4.92;100.00;101091.41;5012631;28;20030;-74
2023/01/15 04:37:10;;;;;;;21.77;9.32;;;;;;;4.82;100.00;101083.88;5012761;28;20030;-73
2023/01/15 04:39:36;;;;;;;23.83;10.23;;;;;;;5.08;100.00;101131.72;5012344;28;20037;-74
2023/01/15 04:44:45;;;;;;;24.38;8.80;;;;;;;5.15;100.00;101131.38;5021661;28;20408;-74
2023/01/15 04:47:10;;;;;;;26.65;10.43;;;;;;;5.28;100.00;101157.84;5029097;28;20025;-74
2023/01/15 04:49:36;;;;;;;19.50;9.93;;;;;;;4.93;100.00;101100.84;5032149;28;20033;-74
2023/01/15 04:52:02;;;;;;;17.75;9.63;;;;;;;5.19;100.00;101153.84;5031210;28;20025;-74
2023/01/15 04:54:27;;;;;;;18.67;9.32;;;;;;;5.24;100.00;101151.63;5031963;28;20053;-72
2023/01/15 04:56:56;;;;;;;16.83;9.18;;;;;;;5.19;100.00;101158.97;5032224;28;20032;-73
2023/01/15 04:59:24;;;;;;;19.45;8.88;;;;;;;5.25;100.00;101161.06;5032221;28;20040;-74
2023/01/15 05:01:50;;;;;;;22.20;8.73;;;;;;;4.82;100.00;101105.22;5031821;28;20113;-74
2023/01/15 05:04:16;;;;;;;19.10;9.57;;;;;;;5.00;100.00;101123.53;5032078;28;20036;-74
2023/01/15 05:06:42;;;;;;;20.15;10.80;;;;;;;5.33;100.00;101171.84;5031922;28;20030;-73
2023/01/15 05:09:07;;;;;;;17.60;10.65;;;;;;;5.17;100.00;101146.84;5029550;28;20045;-73
2023/01/15 05:11:38;;;;;;;21.17;10.00;;;;;;;5.19;100.00;101142.72;5031829;28;20048;-74
2023/01/15 05:14:05;;;;;;;21.30;9.23;;;;;;;5.20;100.00;101162.44;5031791;28;20385;-74
2023/01/15 05:16:31;;;;;;;19.77;8.93;;;;;;;4.70;100.00;101068.56;5030431;28;20037;-72
2023/01/15 05:18:59;;;;;;;15.80;8.60;;;;;;;5.21;100.00;101173.53;5030218;28;20033;-74
2023/01/15 05:21:30;;;;;;;19.50;9.35;;;;;;;4.89;100.00;101110.78;5021093;28;20533;-74
2023/01/15 05:23:57;;;;;;;17.17;8.23;;;;;;;4.69;100.00;101087.25;5014854;28;20058;-74
2023/01/15 05:26:23;;;;;;;19.30;8.95;;;;;;;5.12;100.00;101172.13;5009608;28;20507;-75
2023/01/15 05:28:52;;;;;;;15.05;8.25;;;;;;;5.19;100.00;101182.00;5028633;28;20040;-75
2023/01/15 05:31:18;;;;;;;17.77;8.23;;;;;;;5.06;100.00;101170.81;5029661;28;20045;-75
2023/01/15 05:33:47;;;;;;;18.48;8.68;;;;;;;5.14;100.00;101179.91;5028796;28;20079;-75
2023/01/15 05:36:16;;;;;;;18.17;7.63;;;;;;;5.06;100.00;101176.81;5037072;28;20043;-75
2023/01/15 05:38:42;;;;;;;17.67;8.35;;;;;;;5.06;100.00;101186.16;5037605;28;20625;-74
2023/01/15 05:44:01;;;;;;;20.02;8.45;;;;;;;4.99;100.00;101177.16;5007618;28;20125;-75
2023/01/15 05:46:27;;;;;;;19.25;7.95;;;;;;;5.06;100.00;101194.75;5008660;28;20038;-75
2023/01/15 05:48:53;;;;;;;16.70;8.18;;;;;;;4.78;100.00;101136.47;5008622;28;20034;-75
2023/01/15 05:51:18;;;;;;;13.52;7.60;;;;;;;4.96;100.00;101152.25;5008746;28;20056;-72
2023/01/15 05:53:44;;;;;;;15.55;7.93;;;;;;;5.12;100.00;101182.38;5008782;28;20125;-74
2023/01/15 05:56:10;;;;;;;16.45;8.95;;;;;;;5.16;100.00;101188.59;5008290;28;20080;-74
2023/01/15 05:58:36;;;;;;;14.10;8.32;;;;;;;5.15;100.00;101191.94;5008671;28;20065;-74
2023/01/15 06:01:07;;;;;;;14.50;7.68;;;;;;;5.03;100.00;101171.47;4989391;28;20068;-76
2023/01/15 06:03:33;;;;;;;14.20;7.03;;;;;;;4.85;100.00;101137.81;4992215;28;20034;-74
2023/01/15 06:05:59;;;;;;;19.25;9.23;;;;;;;5.12;100.00;101192.63;4982232;28;20046;-77
2023/01/15 06:08:24;;;;;;;19.85;8.90;;;;;;;5.08;100.00;101176.94;5003720;28;20058;-72
2023/01/15 06:10:49;;;;;;;15.90;8.23;;;;;;;5.15;100.00;101197.06;5007719;28;20040;-73
2023/01/15 06:13:16;;;;;;;14.07;7.50;;;;;;;5.18;100.00;101195.59;5007733;28;20053;-74
2023/01/15 06:15:42;;;;;;;18.15;8.13;;;;;;;5.14;100.00;101195.28;4999303;28;20513;-76
2023/01/15 06:18:08;;;;;;;13.30;7.78;;;;;;;5.13;100.00;101193.50;4988014;28;20039;-77
2023/01/15 06:20:35;;;;;;;14.35;7.65;;;;;;;5.18;100.00;101197.25;4994127;28;20045;-76
2023/01/15 06:23:00;;;;;;;17.23;8.40;;;;;;;5.19;100.00;101201.59;5009565;28;20385;-74
2023/01/15 06:25:26;;;;;;;15.40;7.60;;;;;;;5.25;100.00;101201.16;5009736;28;20026;-74
2023/01/15 06:27:51;;;;;;;16.20;8.95;;;;;;;5.09;100.00;101173.59;5009762;28;20434;-75
2023/01/15 06:30:18;;;;;;;13.52;7.53;;;;;;;5.31;100.00;101194.78;5009603;28;20524;-74
2023/01/15 06:32:44;;;;;;;19.48;8.10;;;;;;;5.20;100.00;101177.78;5009887;28;20408;-77
2023/01/15 06:35:09;;;;;;;23.42;9.00;;;;;;;4.95;100.00;101170.94;5009944;28;20422;-73
2023/01/15 06:37:35;;;;;;;21.65;7.82;;;;;;;4.92;100.00;101178.41;5012256;28;20137;-76
2023/01/15 06:40:01;;;;;;;26.77;9.80;;;;;;;5.09;100.00;101209.41;5011708;28;20485;-75
2023/01/15 06:47:56;;;;;;;15.45;8.27;;;;;;;5.15;100.00;101212.41;5029762;28;20041;-72
2023/01/15 06:50:22;;;;;;;14.70;8.30;;;;;;;4.66;100.00;101126.28;5026910;28;20139;-75
2023/01/15 06:52:47;;;;;;;23.90;9.07;;;;;;;5.09;100.00;101196.63;5020605;28;20060;-74
2023/01/15 06:55:12;;;;;;;17.20;8.45;;;;;;;4.84;100.00;101148.81;5029756;28;20124;-74
2023/01/15 06:57:39;;;;;;;16.25;8.60;;;;;;;5.19;100.00;101211.84;5029427;28;20030;-74
2023/01/15 07:00:07;;;;;;;19.40;8.45;;;;;;;5.20;100.00;101193.16;5029471;28;20515;-74
2023/01/15 07:02:32;;;;;;;13.63;8.02;;;;;;;5.35;100.00;101201.00;5029391;28;20444;-72
2023/01/15 07:04:58;;;;;;;14.27;8.60;;;;;;;4.49;100.00;101065.38;5029781;28;20135;-72
2023/01/15 07:07:24;;;;;;;17.23;8.95;;;;;;;5.27;100.00;101207.25;5029996;28;20399;-74
2023/01/15 07:09:49;;;;;;;15.68;7.75;;;;;;;4.43;100.00;101059.81;5032448;28;20515;-74
2023/01/15 07:12:16;;;;;;;24.05;12.73;;;;;;;5.29;100.00;101213.38;5033464;28;20415;-74
2023/01/15 07:14:41;;;;;;;23.02;14.35;;;;;;;5.32;100.00;101211.94;5033607;28;20037;-74
2023/01/15 07:17:07;;;;;;;40.70;26.10;;;;;;;4.94;100.00;101119.66;5033570;28;20040;-76
2023/01/15 07:19:32;;;;;;;36.65;23.85;;;;;;;5.32;100.00;101191.44;5033125;28;20441;-74
2023/01/15 07:21:58;;;;;;;26.30;15.23;;;;;;;5.44;100.00;101209.31;5033252;28;20033;-73
2023/01/15 07:24:23;;;;;;;39.55;21.77;;;;;;;5.53;100.00;101214.19;5017073;28;20526;-76
2023/01/15 07:26:48;;;;;;;17.00;11.23;;;;;;;4.90;100.00;101125.31;5028777;28;20057;-72
2023/01/15 07:29:14;;;;;;;19.48;9.25;;;;;;;5.31;100.00;101220.38;5013161;28;20037;-72
2023/01/15 07:31:59;;;;;;;19.98;10.10;;;;;;;5.35;100.00;101224.94;4983421;28;20149;-74
2023/01/15 07:34:25;;;;;;;13.48;8.80;;;;;;;5.41;100.00;101219.38;4993532;28;20121;-75
2023/01/15 07:36:50;;;;;;;18.48;8.73;;;;;;;5.44;100.00;101211.00;5010206;28;20037;-75
2023/01/15 07:39:16;;;;;;;18.90;10.23;;;;;;;5.41;100.00;101221.03;5030099;28;20030;-74
2023/01/15 07:50:08;;;;;;;33.67;30.05;;;;;;;5.29;100.00;101231.31;5030403;28;20052;-74
2023/01/15 07:52:34;;;;;;;18.42;10.75;;;;;;;5.30;100.00;101233.97;5030582;28;20492;-74
2023/01/15 07:55:00;;;;;;;43.15;35.15;;;;;;;5.32;100.00;101232.41;5030149;28;20064;-74
2023/01/15 07:57:25;;;;;;;49.20;35.42;;;;;;;5.26;100.00;101231.06;5013462;28;20561;-73
2023/01/15 07:59:51;;;;;;;54.28;40.50;;;;;;;4.54;100.00;101104.94;5029883;28;20072;-74
2023/01/15 08:02:16;;;;;;;20.90;12.70;;;;;;;5.18;100.00;101213.53;5030337;28;20041;-75
2023/01/15 08:04:42;;;;;;;16.35;7.70;;;;;;;5.22;100.00;101222.31;5029937;28;20029;-74
2023/01/15 08:07:08;;;;;;;28.95;20.77;;;;;;;5.18;100.00;101225.41;5029977;28;20044;-74
2023/01/15 08:09:33;;;;;;;19.23;10.02;;;;;;;5.19;100.00;101234.88;5031257;28;20140;-74
2023/01/15 08:17:28;;;;;;;17.38;9.13;;;;;;;5.12;100.00;101232.66;5032372;28;20557;-74
2023/01/15 08:19:53;;;;;;;45.67;40.90;;;;;;;5.12;100.00;101242.91;5032169;28;20026;-75
2023/01/15 08:22:19;;;;;;;13.93;9.00;;;;;;;5.10;100.00;101239.38;5032100;28;20116;-74
2023/01/15 08:24:44;;;;;;;13.07;7.68;;;;;;;5.21;100.00;101238.44;5032184;28;20431;-74
2023/01/15 08:27:12;;;;;;;12.70;7.65;;;;;;;5.22;100.00;101240.22;5032298;28;20431;-74
2023/01/15 08:29:38;;;;;;;14.05;8.00;;;;;;;5.15;100.00;101243.13;5031314;28;20037;-74
2023/01/15 08:32:04;;;;;;;17.40;8.57;;;;;;;4.88;100.00;101194.31;5032270;28;20492;-74
2023/01/15 08:34:30;;;;;;;16.08;8.52;;;;;;;5.11;100.00;101225.75;5031910;28;20063;-74
2023/01/15 08:36:58;;;;;;;13.13;7.47;;;;;;;5.17;100.00;101244.09;5031989;28;20107;-74
2023/01/15 08:39:26;;;;;;;23.80;11.87;;;;;;;4.83;100.00;101183.72;5018202;28;20038;-75
2023/01/15 08:41:51;;;;;;;18.95;10.02;;;;;;;5.25;100.00;101247.25;5030690;28;20033;-74
2023/01/15 08:44:17;;;;;;;18.45;11.85;;;;;;;5.23;100.00;101223.19;5025453;28;20404;-73
2023/01/15 08:46:42;;;;;;;16.90;10.45;;;;;;;5.16;100.00;101198.84;5026853;28;20025;-74
2023/01/15 08:49:09;;;;;;;18.58;13.50;;;;;;;5.28;100.00;101224.41;5031142;28;20483;-74
2023/01/15 08:51:35;;;;;;;19.77;12.50;;;;;;;5.51;100.00;101239.69;5031176;28;20403;-73
2023/01/15 08:54:00;;;;;;;43.40;33.05;;;;;;;5.57;100.00;101239.25;5026734;28;20030;-76
2023/01/15 08:56:26;;;;;;;55.08;42.30;;;;;;;5.42;100.00;101210.91;5011475;28;20488;-72
2023/01/15 08:58:51;;;;;;;24.63;15.90;;;;;;;5.53;100.00;101211.63;5011264;28;20422;-73
2023/01/15 09:01:17;;;;;;;17.88;10.13;;;;;;;5.65;100.00;101232.09;5011525;28;20080;-71
2023/01/15 09:03:42;;;;;;;16.08;11.65;;;;;;;5.53;100.00;101229.56;5010813;28;20377;-78
2023/01/15 09:06:09;;;;;;;18.38;14.35;;;;;;;5.32;100.00;101186.31;5010761;28;20404;-76
2023/01/15 09:08:36;;;;;;;15.30;11.02;;;;;;;5.20;100.00;101154.75;5020294;28;20578;-74
2023/01/15 09:11:03;;;;;;;20.38;13.73;;;;;;;5.72;100.00;101230.84;5031302;28;20467;-73
2023/01/15 09:13:29;;;;;;;13.00;9.13;;;;;;;5.45;100.00;101182.94;5031224;28;20037;-74
2023/01/15 09:16:03;;;;;;;13.27;8.38;;;;;;;5.81;100.00;101218.66;5013650;28;20060;-74
2023/01/15 09:18:30;;;;;;;13.93;8.10;;;;;;;5.44;100.00;101152.97;5011358;28;20026;-76
2023/01/15 09:20:56;;;;;;;12.68;8.80;;;;;;;5.40;100.00;101153.56;5014529;28;20480;-75
2023/01/15 09:23:22;;;;;;;13.52;8.30;;;;;;;5.86;100.00;101221.53;5011036;28;20100;-77
2023/01/15 09:25:56;;;;;;;17.67;8.13;;;;;;;5.69;100.00;101166.59;5011006;28;20040;-74
2023/01/15 09:28:21;;;;;;;14.85;8.65;;;;;;;5.95;100.00;101217.03;5030138;28;20074;-72
2023/01/15 09:30:47;;;;;;;12.20;8.02;;;;;;;5.86;100.00;101216.41;5028399;28;20064;-75
2023/01/15 09:33:13;;;;;;;23.02;16.63;;;;;;;5.78;100.00;101203.97;5010812;28;20061;-76
2023/01/15 09:35:39;;;;;;;18.23;12.07;;;;;;;5.70;100.00;101194.88;5009654;28;20142;-76
2023/01/15 09:38:05;;;;;;;20.73;11.90;;;;;;;5.76;100.00;101189.28;5010037;28;20038;-76
2023/01/15 09:40:48;;;;;;;26.98;15.50;;;;;;;5.94;100.00;101211.03;5010470;28;20022;-76
2023/01/15 09:43:31;;;;;;;28.10;10.52;;;;;;;5.95;100.00;101194.84;5010447;28;20034;-75
2023/01/15 09:46:03;;;;;;;23.10;10.90;;;;;;;5.89;100.00;101208.94;5010574;28;20030;-76
2023/01/15 09:48:54;;;;;;;22.48;10.55;;;;;;;5.92;100.00;101206.56;5025804;28;20381;-76
2023/01/15 09:51:30;;;;;;;19.85;12.80;;;;;;;5.86;100.00;101204.50;5010377;28;20037;-76
2023/01/15 09:54:13;;;;;;;23.60;16.65;;;;;;;5.73;100.00;101200.22;5010418;28;20068;-76
2023/01/15 09:56:39;;;;;;;25.70;14.75;;;;;;;5.18;100.00;101095.78;5024313;28;20566;-75
2023/01/15 09:59:18;;;;;;;21.83;14.65;;;;;;;5.61;100.00;101181.44;5009572;28;20030;-77
2023/01/15 10:01:44;;;;;;;20.20;14.68;;;;;;;5.41;100.00;101151.88;5009980;28;20026;-75
2023/01/15 10:04:28;;;;;;;18.92;11.38;;;;;;;5.58;100.00;101169.31;5009634;28;20030;-76
2023/01/15 10:07:07;;;;;;;16.88;10.93;;;;;;;5.48;100.00;101157.56;5018190;28;20418;-76
2023/01/15 10:09:38;;;;;;;25.63;14.00;;;;;;;5.56;100.00;101162.28;5029726;28;20100;-75
2023/01/15 10:15:31;;;;;;;17.83;9.35;;;;;;;5.62;100.00;101150.81;5024121;28;20129;-77
2023/01/15 10:17:58;;;;;;;16.33;9.82;;;;;;;5.66;100.00;101137.41;5010532;28;20120;-76
2023/01/15 10:20:39;;;;;;;19.52;9.35;;;;;;;5.79;100.00;101144.22;5010741;28;20053;-77
2023/01/15 10:23:24;;;;;;;15.70;9.05;;;;;;;5.81;100.00;101136.69;5006953;28;20583;-75
2023/01/15 10:25:59;;;;;;;19.80;9.43;;;;;;;5.89;100.00;101132.94;5014339;28;20091;-76
2023/01/15 10:28:28;;;;;;;15.20;8.50;;;;;;;5.84;100.00;101126.63;5019671;28;20041;-76
2023/01/15 10:30:59;;;;;;;19.00;8.50;;;;;;;5.91;100.00;101128.81;5018185;28;20042;-76
2023/01/15 10:34:03;;;;;;;15.32;8.02;;;;;;;5.89;100.00;101124.38;5017501;28;22005;-77
2023/01/15 10:36:39;;;;;;;17.13;8.30;;;;;;;5.87;100.00;101121.72;5012357;28;20583;-76
2023/01/15 10:39:21;;;;;;;15.57;8.48;;;;;;;5.80;100.00;101120.38;5007158;28;20778;-75
2023/01/15 10:41:49;;;;;;;17.17;9.50;;;;;;;5.80;100.00;101125.50;5013285;28;20034;-74
2023/01/15 10:44:27;;;;;;;15.27;7.68;;;;;;;5.77;100.00;101103.91;5020123;28;20042;-74
2023/01/15 10:46:57;;;;;;;17.92;8.52;;;;;;;5.33;100.00;101038.69;5015369;28;20034;-74
2023/01/15 10:49:27;;;;;;;15.23;9.15;;;;;;;5.61;100.00;101096.91;5024915;28;20072;-73
2023/01/15 10:52:29;;;;;;;14.02;9.10;;;;;;;5.63;100.00;101106.47;5030639;28;20103;-75
2023/01/15 10:55:22;;;;;;;18.25;8.40;;;;;;;5.12;100.00;101015.09;4963773;28;20039;-75
2023/01/15 10:58:18;;;;;;;14.27;7.75;;;;;;;5.50;100.00;101086.81;4955346;28;20478;-74
2023/01/15 11:00:51;;;;;;;14.00;8.98;;;;;;;5.61;100.00;101089.22;4971128;28;20616;-77
2023/01/15 11:03:21;;;;;;;17.13;9.82;;;;;;;5.66;100.00;101093.84;4971782;28;20042;-78
2023/01/15 11:05:48;;;;;;;17.58;10.27;;;;;;;5.59;100.00;101093.34;4971460;28;20038;-75
2023/01/15 11:08:29;;;;;;;18.80;12.00;;;;;;;5.11;100.00;101009.13;4971511;28;20489;-74
2023/01/15 11:10:57;;;;;;;18.15;10.48;;;;;;;5.41;100.00;101072.50;4971347;28;20041;-75
2023/01/15 11:19:36;;;;;;;14.52;8.93;;;;;;;5.45;100.00;101079.63;4952095;28;20110;-76
2023/01/15 11:22:08;;;;;;;18.35;9.35;;;;;;;5.38;100.00;101075.75;4952038;28;20583;-76
2023/01/15 11:24:56;;;;;;;19.02;10.40;;;;;;;5.45;100.00;101060.00;4951756;28;20039;-74
2023/01/15 11:27:25;;;;;;;16.38;9.88;;;;;;;5.58;100.00;101065.97;4951665;28;20095;-79
2023/01/15 11:29:53;;;;;;;17.33;10.55;;;;;;;5.60;100.00;101059.28;4951679;28;20038;-75
2023/01/15 11:32:30;;;;;;;15.45;9.77;;;;;;;5.60;100.00;101059.28;4974657;28;20046;-74
2023/01/15 11:34:59;;;;;;;16.17;10.27;;;;;;;5.51;100.00;101044.19;4978346;28;20517;-74
2023/01/15 11:37:26;;;;;;;15.80;9.85;;;;;;;5.65;100.00;101043.41;4990480;28;20054;-75
2023/01/15 11:40:05;;;;;;;16.42;9.57;;;;;;;5.77;100.00;101050.13;4977881;28;20039;-75
2023/01/15 11:51:13;;;;;;;19.88;12.52;;;;;;;5.47;100.00;100950.00;4970668;28;20088;-77
2023/01/15 11:54:03;;;;;;;29.00;17.85;;;;;;;5.86;100.00;101027.69;4970707;28;20446;-73
2023/01/15 11:56:30;;;;;;;14.98;9.75;;;;;;;5.86;100.00;101025.13;4953230;28;20044;-74
2023/01/15 11:59:02;;;;;;;14.88;8.90;;;;;;;5.90;100.00;101024.50;4951404;28;20126;-74
2023/01/15 12:01:37;;;;;;;14.95;8.88;;;;;;;5.93;100.00;101027.28;4950961;28;20043;-75
2023/01/15 12:04:06;;;;;;;13.43;8.60;;;;;;;5.50;100.00;100947.66;4934910;28;20085;-73
2023/01/15 12:06:35;;;;;;;14.30;8.07;;;;;;;5.84;100.00;101016.44;4950989;28;20042;-75
2023/01/15 12:09:20;;;;;;;13.50;8.60;;;;;;;5.79;100.00;100984.50;4952156;28;20078;-74
2023/01/15 12:11:59;;;;;;;13.23;8.35;;;;;;;5.92;100.00;101006.66;4951491;28;20382;-73
2023/01/15 12:15:02;;;;;;;14.65;10.10;;;;;;;5.42;100.00;100924.09;4955805;28;20149;-77
2023/01/15 12:17:46;;;;;;;13.15;8.65;;;;;;;5.87;100.00;100997.81;4966391;28;20039;-77
2023/01/15 12:20:48;;;;;;;12.55;7.95;;;;;;;5.89;100.00;101001.34;4950338;28;20039;-75